Time;durP1;ratioP1;P1;durP2;ratioP2;P2;SDS_P1;SDS_P2;PMS_P1;PMS_P2;Temp;Humidity;BMP_temperature;BMP_pressure;BME280_temperature;BME280_humidity;BME280_pressure;Samples;Min_cycle;Max_cycle;Signal;HPM_P1;HPM_P2
2023/01/01 00:00:51;;;;;;;54.42;36.55;;;;;;;;;;6098094;19;20014;-75
2023/01/01 00:02:56;;;;;;;41.95;29.73;;;;;;;;;;6097070;19;20126;-74
2023/01/01 00:05:02;;;;;;;33.47;22.38;;;;;;;;;;6100070;19;20018;-74
2023/01/01 00:07:07;;;;;;;38.63;27.15;;;;;;;;;;6101625;19;20010;-76
2023/01/01 00:11:30;;;;;;;40.22;26.67;;;;;;;;;;6101808;19;20471;-76
2023/01/01 00:13:35;;;;;;;26.48;17.17;;;;;;;;;;6099803;19;20478;-75
2023/01/01 00:15:40;;;;;;;23.58;15.50;;;;;;;;;;6073685;19;20014;-74
2023/01/01 00:17:47;;;;;;;28.65;16.35;;;;;;;;;;6096354;19;20007;-74
2023/01/01 00:19:52;;;;;;;29.10;17.60;;;;;;;;;;6095667;19;21044;-73
2023/01/01 00:21:56;;;;;;;36.35;23.50;;;;;;;;;;6098189;19;20042;-73
2023/01/01 00:24:02;;;;;;;44.08;26.58;;;;;;;;;;6100957;19;20018;-73
2023/01/01 00:26:12;;;;;;;29.90;17.33;;;;;;;;;;6100587;19;20010;-74
2023/01/01 00:28:16;;;;;;;21.02;11.45;;;;;;;;;;6098672;19;20007;-74
2023/01/01 00:30:23;;;;;;;22.95;12.85;;;;;;;;;;6098857;19;20574;-74
2023/01/01 00:32:28;;;;;;;22.15;13.57;;;;;;;;;;6093285;19;20426;-74
2023/01/01 00:34:35;;;;;;;26.30;13.18;;;;;;;;;;6098805;19;20015;-74
2023/01/01 00:36:40;;;;;;;21.55;12.93;;;;;;;;;;6100559;19;20015;-74
2023/01/01 00:38:46;;;;;;;22.90;10.43;;;;;;;;;;6100960;19;20011;-74
2023/01/01 00:40:51;;;;;;;21.05;10.52;;;;;;;;;;6100493;19;20021;-75
2023/01/01 00:42:56;;;;;;;23.42;13.68;;;;;;;;;;6100057;19;20106;-74
2023/01/01 00:45:00;;;;;;;23.15;11.48;;;;;;;;;;6099871;19;20075;-74
2023/01/01 00:47:05;;;;;;;20.00;9.45;;;;;;;;;;6098690;19;20018;-71
2023/01/01 00:49:10;;;;;;;28.75;10.15;;;;;;;;;;6097917;19;20553;-71
2023/01/01 00:51:17;;;;;;;21.23;10.40;;;;;;;;;;6098428;19;20024;-73
2023/01/01 00:53:22;;;;;;;28.73;12.63;;;;;;;;;;6095385;19;20404;-73
2023/01/01 00:55:28;;;;;;;24.48;10.73;;;;;;;;;;6099655;19;20010;-74
2023/01/01 00:57:34;;;;;;;18.48;10.25;;;;;;;;;;6100998;19;20046;-75
2023/01/01 00:59:38;;;;;;;19.08;9.10;;;;;;;;;;6097811;19;20371;-75
2023/01/01 01:01:44;;;;;;;16.55;10.18;;;;;;;;;;6103097;19;20079;-74
2023/01/01 01:03:50;;;;;;;20.77;11.13;;;;;;;;;;6070395;19;20034;-74
2023/01/01 01:05:54;;;;;;;17.77;8.30;;;;;;;;;;6099913;19;20010;-73
2023/01/01 01:08:02;;;;;;;19.60;9.60;;;;;;;;;;6101091;19;20040;-76
2023/01/01 01:10:10;;;;;;;16.88;7.07;;;;;;;;;;6100627;19;20014;-75
2023/01/01 01:12:15;;;;;;;17.63;8.18;;;;;;;;;;6103944;19;20003;-73
2023/01/01 01:14:22;;;;;;;18.98;11.20;;;;;;;;;;6104436;19;20228;-73
2023/01/01 01:16:29;;;;;;;18.85;8.60;;;;;;;;;;6104559;19;20027;-72
2023/01/01 01:18:34;;;;;;;12.35;6.18;;;;;;;;;;6103599;19;20002;-72
2023/01/01 01:20:39;;;;;;;14.88;6.65;;;;;;;;;;6101089;19;20014;-73
2023/01/01 01:22:44;;;;;;;19.38;8.55;;;;;;;;;;6102084;19;20034;-73
2023/01/01 01:24:52;;;;;;;18.60;9.30;;;;;;;;;;6103932;19;20024;-73
2023/01/01 01:26:57;;;;;;;15.88;8.13;;;;;;;;;;6103799;19;20015;-74
2023/01/01 01:29:03;;;;;;;16.73;5.82;;;;;;;;;;6104886;19;20015;-75
2023/01/01 01:31:08;;;;;;;14.07;5.65;;;;;;;;;;6110285;19;20023;-73
2023/01/01 01:33:13;;;;;;;16.17;6.18;;;;;;;;;;6111426;19;20013;-73
2023/01/01 01:35:17;;;;;;;14.20;6.47;;;;;;;;;;6110708;19;20007;-73
2023/01/01 01:37:22;;;;;;;11.73;5.53;;;;;;;;;;6108320;19;20474;-74
2023/01/01 01:39:27;;;;;;;18.67;8.27;;;;;;;;;;6109554;19;20082;-73
2023/01/01 01:41:35;;;;;;;15.32;6.68;;;;;;;;;;6111268;19;20016;-73
2023/01/01 01:43:53;;;;;;;13.30;5.50;;;;;;;;;;6110473;19;20030;-73
2023/01/01 01:46:00;;;;;;;12.50;5.18;;;;;;;;;;6107203;19;20042;-74
2023/01/01 01:48:05;;;;;;;13.05;6.72;;;;;;;;;;6108711;19;20022;-72
2023/01/01 01:50:13;;;;;;;14.43;8.95;;;;;;;;;;6110375;19;20036;-75
2023/01/01 01:52:18;;;;;;;14.27;5.25;;;;;;;;;;6108583;19;20578;-74
2023/01/01 01:54:24;;;;;;;13.48;5.10;;;;;;;;;;6109706;19;20073;-74
2023/01/01 01:56:37;;;;;;;15.80;5.60;;;;;;;;;;6110021;19;20022;-75
2023/01/01 01:58:42;;;;;;;13.35;5.00;;;;;;;;;;6108568;19;20066;-75
2023/01/01 02:00:46;;;;;;;12.02;4.68;;;;;;;;;;6108296;19;20078;-74
2023/01/01 02:02:55;;;;;;;10.55;4.32;;;;;;;;;;6109758;19;20010;-74
2023/01/01 02:05:00;;;;;;;9.93;4.03;;;;;;;;;;6107363;19;20531;-74
2023/01/01 02:07:05;;;;;;;17.50;4.57;;;;;;;;;;6109060;19;20010;-75
2023/01/01 02:09:11;;;;;;;10.45;4.50;;;;;;;;;;6106340;19;20007;-75
2023/01/01 02:11:16;;;;;;;10.75;4.28;;;;;;;;;;6108447;19;20311;-75
2023/01/01 02:13:28;;;;;;;11.30;4.32;;;;;;;;;;6107333;19;20321;-75
2023/01/01 02:15:37;;;;;;;12.32;4.18;;;;;;;;;;6108331;19;20017;-75
2023/01/01 02:17:47;;;;;;;8.88;4.22;;;;;;;;;;6106993;19;20006;-73
2023/01/01 02:20:09;;;;;;;11.50;4.10;;;;;;;;;;6107266;19;20018;-74
2023/01/01 02:22:17;;;;;;;10.63;4.43;;;;;;;;;;6105322;19;20010;-75
2023/01/01 02:24:53;;;;;;;10.77;4.10;;;;;;;;;;6110667;19;20026;-76
2023/01/01 02:27:01;;;;;;;12.10;4.07;;;;;;;;;;6108721;19;20498;-75
2023/01/01 02:29:14;;;;;;;12.15;4.07;;;;;;;;;;6107193;19;20404;-75
2023/01/01 02:31:23;;;;;;;11.32;3.50;;;;;;;;;;6110477;19;20491;-75
2023/01/01 02:33:29;;;;;;;11.40;3.50;;;;;;;;;;6109057;19;20015;-75
2023/01/01 02:35:37;;;;;;;9.10;3.42;;;;;;;;;;6109403;19;20014;-75
2023/01/01 02:37:42;;;;;;;9.93;4.13;;;;;;;;;;6108744;19;20006;-75
2023/01/01 02:39:50;;;;;;;12.20;3.50;;;;;;;;;;6108524;19;20011;-75
2023/01/01 02:41:56;;;;;;;11.20;4.10;;;;;;;;;;6103054;19;20046;-74
2023/01/01 02:44:02;;;;;;;10.70;3.28;;;;;;;;;;6109731;19;20014;-73
2023/01/01 02:46:11;;;;;;;10.93;3.17;;;;;;;;;;6108654;19;20018;-73
2023/01/01 02:48:41;;;;;;;8.43;2.90;;;;;;;;;;6106812;19;20007;-73
2023/01/01 02:50:46;;;;;;;8.65;3.30;;;;;;;;;;6106264;19;20038;-75
2023/01/01 02:52:56;;;;;;;19.00;3.20;;;;;;;;;;6105146;19;20113;-74
2023/01/01 02:55:07;;;;;;;10.45;3.45;;;;;;;;;;6107323;19;20013;-75
2023/01/01 02:57:18;;;;;;;8.60;3.20;;;;;;;;;;6106205;19;20027;-75
2023/01/01 03:01:50;;;;;;;9.80;3.28;;;;;;;;;;6106025;19;20011;-73
2023/01/01 03:04:03;;;;;;;9.10;2.70;;;;;;;;;;6101936;19;20015;-74
2023/01/01 03:08:35;;;;;;;9.68;3.40;;;;;;;;;;6107412;19;20094;-73
2023/01/01 03:10:44;;;;;;;10.05;3.20;;;;;;;;;;6107640;19;20033;-73
2023/01/01 03:12:56;;;;;;;8.43;2.80;;;;;;;;;;6108187;19;20086;-72
2023/01/01 03:15:04;;;;;;;11.65;3.30;;;;;;;;;;6102786;19;20070;-73
2023/01/01 03:17:16;;;;;;;12.48;2.85;;;;;;;;;;6106301;19;20105;-73
2023/01/01 03:19:22;;;;;;;11.38;3.20;;;;;;;;;;6102401;19;20341;-73
2023/01/01 03:21:27;;;;;;;7.90;3.45;;;;;;;;;;6099375;19;20085;-73
2023/01/01 03:23:37;;;;;;;8.00;3.15;;;;;;;;;;6104056;19;20656;-75
2023/01/01 03:25:44;;;;;;;8.15;3.40;;;;;;;;;;6102592;19;20010;-72
2023/01/01 03:27:51;;;;;;;8.02;2.90;;;;;;;;;;6105649;19;20048;-73
2023/01/01 03:29:58;;;;;;;12.88;3.10;;;;;;;;;;6100816;19;20011;-73
2023/01/01 03:32:06;;;;;;;14.05;3.05;;;;;;;;;;6102293;19;20014;-73
2023/01/01 03:34:19;;;;;;;12.10;3.22;;;;;;;;;;6103513;19;20014;-74
2023/01/01 03:36:28;;;;;;;10.25;3.00;;;;;;;;;;6104479;19;20042;-74
2023/01/01 03:38:38;;;;;;;10.38;2.67;;;;;;;;;;6104590;19;20038;-72
2023/01/01 03:40:44;;;;;;;5.07;1.98;;;;;;;;;;6105065;19;20007;-73
2023/01/01 03:42:55;;;;;;;5.70;2.20;;;;;;;;;;6103486;19;20483;-74
2023/01/01 03:45:03;;;;;;;8.55;2.88;;;;;;;;;;6102103;19;20046;-73
2023/01/01 03:47:08;;;;;;;6.93;2.35;;;;;;;;;;6102653;19;20034;-75
2023/01/01 03:49:17;;;;;;;8.38;2.65;;;;;;;;;;6102938;19;20503;-76
2023/01/01 03:51:25;;;;;;;6.45;2.33;;;;;;;;;;6103102;19;20069;-75
2023/01/01 03:53:38;;;;;;;7.28;2.00;;;;;;;;;;6099446;19;20014;-74
2023/01/01 03:55:47;;;;;;;3.83;1.88;;;;;;;;;;6101122;19;20019;-74
2023/01/01 03:57:58;;;;;;;5.70;1.90;;;;;;;;;;6102410;19;20391;-74
2023/01/01 04:00:06;;;;;;;6.93;2.42;;;;;;;;;;6099926;19;20030;-73
2023/01/01 04:02:13;;;;;;;8.00;2.55;;;;;;;;;;6103325;19;20417;-73
2023/01/01 04:04:22;;;;;;;5.93;2.30;;;;;;;;;;6103413;19;20448;-72
2023/01/01 04:06:27;;;;;;;8.52;2.13;;;;;;;;;;6101282;19;20140;-73
2023/01/01 04:08:35;;;;;;;10.32;2.53;;;;;;;;;;6102820;19;20024;-74
2023/01/01 04:10:43;;;;;;;4.85;2.33;;;;;;;;;;6102837;19;20013;-72
2023/01/01 04:12:49;;;;;;;12.13;2.53;;;;;;;;;;6102617;19;20014;-74
2023/01/01 04:14:54;;;;;;;8.02;2.55;;;;;;;;;;6102381;19;20025;-73
2023/01/01 04:16:59;;;;;;;16.98;2.60;;;;;;;;;;6102852;19;20073;-73
2023/01/01 04:19:05;;;;;;;4.72;2.15;;;;;;;;;;6103585;19;20315;-73
2023/01/01 04:21:13;;;;;;;11.10;2.40;;;;;;;;;;6102510;19;20305;-73
2023/01/01 04:23:20;;;;;;;7.78;2.45;;;;;;;;;;6104376;19;20344;-73
2023/01/01 04:25:26;;;;;;;9.57;2.60;;;;;;;;;;6102180;19;20169;-73
2023/01/01 04:27:30;;;;;;;14.95;2.70;;;;;;;;;;6103626;19;20007;-73
2023/01/01 04:29:37;;;;;;;8.82;2.55;;;;;;;;;;6098453;19;21152;-75
2023/01/01 04:31:42;;;;;;;11.32;3.30;;;;;;;;;;6103621;19;20009;-73
2023/01/01 04:33:46;;;;;;;5.00;2.60;;;;;;;;;;6101895;19;20022;-75
2023/01/01 04:35:51;;;;;;;11.65;3.15;;;;;;;;;;6102949;19;20015;-76
2023/01/01 04:38:02;;;;;;;11.70;3.22;;;;;;;;;;6101147;19;20420;-75
2023/01/01 04:40:09;;;;;;;6.47;2.65;;;;;;;;;;6104618;19;20139;-76
2023/01/01 04:42:14;;;;;;;9.43;3.05;;;;;;;;;;6102702;19;20011;-75
2023/01/01 04:44:18;;;;;;;8.48;2.78;;;;;;;;;;6101824;19;20015;-76
2023/01/01 04:46:24;;;;;;;8.20;2.70;;;;;;;;;;6103657;19;20569;-75
2023/01/01 04:48:30;;;;;;;7.97;2.40;;;;;;;;;;6101770;19;20332;-75
2023/01/01 04:50:35;;;;;;;8.82;2.97;;;;;;;;;;6101501;19;20038;-75
2023/01/01 04:52:40;;;;;;;13.95;3.30;;;;;;;;;;6101758;19;20020;-75
2023/01/01 04:54:47;;;;;;;7.40;2.70;;;;;;;;;;6103178;19;20003;-76
2023/01/01 04:56:52;;;;;;;7.95;2.42;;;;;;;;;;6103134;19;20023;-76
2023/01/01 04:58:58;;;;;;;7.55;3.75;;;;;;;;;;6102944;19;20018;-75
2023/01/01 05:01:03;;;;;;;6.22;2.60;;;;;;;;;;6102833;19;20007;-75
2023/01/01 05:03:08;;;;;;;9.93;2.55;;;;;;;;;;6103229;19;20054;-74
2023/01/01 05:05:13;;;;;;;11.00;3.15;;;;;;;;;;6100386;19;20010;-74
2023/01/01 05:07:18;;;;;;;7.38;2.60;;;;;;;;;;6098100;19;20025;-74
2023/01/01 05:09:23;;;;;;;11.13;2.60;;;;;;;;;;6100698;19;20017;-74
2023/01/01 05:11:38;;;;;;;12.73;3.95;;;;;;;;;;6101402;19;20015;-73
2023/01/01 05:13:45;;;;;;;8.57;2.65;;;;;;;;;;6100321;19;20027;-76
2023/01/01 05:15:49;;;;;;;11.32;2.95;;;;;;;;;;6103541;19;20026;-76
2023/01/01 05:17:55;;;;;;;9.60;2.20;;;;;;;;;;6096680;19;20014;-75
2023/01/01 05:20:00;;;;;;;10.68;2.90;;;;;;;;;;6099227;19;20118;-74
2023/01/01 05:22:05;;;;;;;10.45;2.70;;;;;;;;;;6101493;19;20022;-74
2023/01/01 05:24:14;;;;;;;6.55;2.13;;;;;;;;;;6099054;19;20010;-75
2023/01/01 05:26:22;;;;;;;8.65;2.30;;;;;;;;;;6102283;19;20010;-73
2023/01/01 05:28:29;;;;;;;9.35;1.92;;;;;;;;;;6102558;19;20478;-74
2023/01/01 05:30:34;;;;;;;7.18;2.33;;;;;;;;;;6099094;19;20589;-73
2023/01/01 05:32:39;;;;;;;8.35;2.40;;;;;;;;;;6099134;19;20653;-73
2023/01/01 05:34:44;;;;;;;8.63;1.98;;;;;;;;;;6101996;19;20014;-74
2023/01/01 05:36:48;;;;;;;10.43;2.10;;;;;;;;;;6101798;19;20006;-73
2023/01/01 05:38:54;;;;;;;6.78;2.28;;;;;;;;;;6101060;19;20040;-73
2023/01/01 05:40:59;;;;;;;6.43;2.38;;;;;;;;;;6102886;19;20672;-76
2023/01/01 05:43:04;;;;;;;5.75;1.80;;;;;;;;;;6099711;19;20474;-77
2023/01/01 05:45:12;;;;;;;10.88;2.40;;;;;;;;;;6101457;19;20594;-75
2023/01/01 05:47:17;;;;;;;7.85;2.35;;;;;;;;;;6100588;19;20131;-76
2023/01/01 05:49:22;;;;;;;10.88;2.17;;;;;;;;;;6101694;19;20467;-75
2023/01/01 05:51:29;;;;;;;5.40;1.80;;;;;;;;;;6102962;19;20010;-75
2023/01/01 05:53:34;;;;;;;10.02;2.30;;;;;;;;;;6100428;19;20655;-73
2023/01/01 05:55:39;;;;;;;15.82;2.83;;;;;;;;;;6101759;19;20087;-73
2023/01/01 05:57:43;;;;;;;11.27;2.90;;;;;;;;;;6101231;19;20478;-73
2023/01/01 05:59:50;;;;;;;9.02;2.10;;;;;;;;;;6099127;19;20022;-74
2023/01/01 06:01:58;;;;;;;7.85;2.25;;;;;;;;;;6074486;19;20086;-74
2023/01/01 06:04:03;;;;;;;14.30;3.70;;;;;;;;;;6097458;19;20003;-74
2023/01/01 06:06:11;;;;;;;8.40;2.30;;;;;;;;;;6098680;19;20617;-74
2023/01/01 06:08:16;;;;;;;8.57;2.15;;;;;;;;;;6098081;19;20676;-74
2023/01/01 06:10:21;;;;;;;9.48;3.08;;;;;;;;;;6100695;19;20011;-76
2023/01/01 06:12:26;;;;;;;10.30;2.55;;;;;;;;;;6101003;19;20086;-75
2023/01/01 06:14:32;;;;;;;6.82;2.08;;;;;;;;;;6100969;19;20017;-76
2023/01/01 06:16:37;;;;;;;12.40;2.50;;;;;;;;;;6104233;19;20351;-76
2023/01/01 06:18:45;;;;;;;14.50;3.10;;;;;;;;;;6107110;19;20014;-73
2023/01/01 06:20:49;;;;;;;13.00;2.53;;;;;;;;;;6101982;19;20086;-76
2023/01/01 06:22:54;;;;;;;11.57;2.53;;;;;;;;;;6107711;19;20450;-76
2023/01/01 06:24:59;;;;;;;11.27;2.33;;;;;;;;;;6103295;19;20589;-76
2023/01/01 06:27:05;;;;;;;10.25;2.85;;;;;;;;;;6104716;19;20074;-76
2023/01/01 06:29:10;;;;;;;10.80;2.50;;;;;;;;;;6104137;19;20019;-76
2023/01/01 06:31:17;;;;;;;12.00;3.25;;;;;;;;;;6103725;19;20455;-76
2023/01/01 06:33:21;;;;;;;6.72;1.90;;;;;;;;;;6104661;19;20284;-76
2023/01/01 06:35:29;;;;;;;7.75;2.97;;;;;;;;;;6102245;19;20046;-76
2023/01/01 06:37:34;;;;;;;12.98;3.03;;;;;;;;;;6105626;19;20034;-76
2023/01/01 06:39:39;;;;;;;17.05;3.92;;;;;;;;;;6108530;19;20014;-73
2023/01/01 06:41:44;;;;;;;9.05;2.03;;;;;;;;;;6101919;19;20024;-74
2023/01/01 06:43:49;;;;;;;12.27;2.85;;;;;;;;;;6105309;19;20063;-73
2023/01/01 06:46:03;;;;;;;8.57;2.53;;;;;;;;;;6100865;19;20014;-73
2023/01/01 06:48:08;;;;;;;10.30;3.33;;;;;;;;;;6106856;19;20014;-74
2023/01/01 06:50:13;;;;;;;16.58;2.90;;;;;;;;;;6103672;19;20030;-74
2023/01/01 06:52:21;;;;;;;10.05;2.25;;;;;;;;;;6105621;19;20261;-74
2023/01/01 06:54:26;;;;;;;7.15;2.10;;;;;;;;;;6107663;19;20098;-73
2023/01/01 06:56:31;;;;;;;15.70;3.30;;;;;;;;;;6103655;19;20022;-74
2023/01/01 06:58:36;;;;;;;16.95;2.70;;;;;;;;;;6105032;19;20408;-73
2023/01/01 07:00:42;;;;;;;8.50;2.30;;;;;;;;;;6103290;19;20410;-74
2023/01/01 07:02:49;;;;;;;9.65;2.33;;;;;;;;;;6107232;19;20007;-75
2023/01/01 07:04:54;;;;;;;14.88;2.53;;;;;;;;;;6106256;19;20479;-76
2023/01/01 07:07:01;;;;;;;9.35;2.65;;;;;;;;;;6064727;19;20014;-75
2023/01/01 07:09:13;;;;;;;9.25;2.60;;;;;;;;;;6082167;19;20039;-76
2023/01/01 07:11:19;;;;;;;16.17;2.67;;;;;;;;;;6081642;19;20110;-76
2023/01/01 07:13:28;;;;;;;11.23;2.55;;;;;;;;;;6101769;19;20051;-75
2023/01/01 07:15:36;;;;;;;10.55;2.50;;;;;;;;;;6104042;19;20014;-74
2023/01/01 07:17:41;;;;;;;6.47;2.25;;;;;;;;;;6103011;19;20082;-75
2023/01/01 07:19:46;;;;;;;9.68;2.55;;;;;;;;;;6104046;19;20010;-76
2023/01/01 07:21:54;;;;;;;13.15;2.60;;;;;;;;;;6104500;19;20017;-77
2023/01/01 07:24:01;;;;;;;9.65;3.03;;;;;;;;;;6086812;19;20347;-77
2023/01/01 07:26:10;;;;;;;11.90;2.35;;;;;;;;;;6100624;19;20014;-75
2023/01/01 07:28:17;;;;;;;11.02;2.88;;;;;;;;;;6105765;19;20017;-76
2023/01/01 07:30:22;;;;;;;11.60;2.17;;;;;;;;;;6107606;19;20011;-76
2023/01/01 07:32:26;;;;;;;12.50;2.25;;;;;;;;;;6105761;19;20017;-76
2023/01/01 07:34:34;;;;;;;7.07;2.58;;;;;;;;;;6105779;19;20054;-77
2023/01/01 07:36:40;;;;;;;9.90;2.00;;;;;;;;;;6106208;19;20561;-76
2023/01/01 07:38:44;;;;;;;12.07;2.97;;;;;;;;;;6108389;19;20018;-74
2023/01/01 07:40:49;;;;;;;9.30;2.53;;;;;;;;;;6108161;19;20032;-74
2023/01/01 07:42:57;;;;;;;5.90;1.85;;;;;;;;;;6106303;19;20007;-73
2023/01/01 07:45:05;;;;;;;10.70;2.03;;;;;;;;;;6105254;19;20364;-75
2023/01/01 07:47:20;;;;;;;12.95;2.70;;;;;;;;;;6105167;19;20356;-73
2023/01/01 07:49:24;;;;;;;11.25;2.30;;;;;;;;;;6104879;19;20010;-75
2023/01/01 07:51:29;;;;;;;10.20;2.40;;;;;;;;;;6106556;19;20026;-77
2023/01/01 07:53:34;;;;;;;6.35;1.75;;;;;;;;;;6103632;19;20007;-74
2023/01/01 07:55:42;;;;;;;10.63;2.53;;;;;;;;;;6106034;19;20038;-73
2023/01/01 07:57:47;;;;;;;7.43;2.33;;;;;;;;;;6104226;19;20014;-73
2023/01/01 07:59:55;;;;;;;10.93;2.35;;;;;;;;;;6105235;19;20711;-74
2023/01/01 08:02:02;;;;;;;12.52;2.28;;;;;;;;;;6084452;19;20472;-74
2023/01/01 08:04:08;;;;;;;7.30;2.30;;;;;;;;;;6102886;19;20541;-74
2023/01/01 08:06:15;;;;;;;14.75;2.40;;;;;;;;;;6104252;19;20419;-75
2023/01/01 08:08:19;;;;;;;8.20;2.47;;;;;;;;;;6102281;19;20006;-77
2023/01/01 08:10:24;;;;;;;9.90;2.50;;;;;;;;;;6104048;19;20042;-78
2023/01/01 08:12:29;;;;;;;10.23;2.28;;;;;;;;;;6101246;19;20035;-77
2023/01/01 08:14:36;;;;;;;12.77;2.45;;;;;;;;;;6102488;19;20492;-76
2023/01/01 08:16:43;;;;;;;10.93;2.20;;;;;;;;;;6097597;19;20011;-76
2023/01/01 08:18:48;;;;;;;10.55;2.53;;;;;;;;;;6102143;19;20026;-76
2023/01/01 08:20:56;;;;;;;10.32;2.05;;;;;;;;;;6101928;19;20122;-77
2023/01/01 08:23:01;;;;;;;11.00;3.25;;;;;;;;;;6102653;19;20361;-73
2023/01/01 08:25:13;;;;;;;12.38;2.65;;;;;;;;;;6104692;19;20014;-74
2023/01/01 08:27:24;;;;;;;14.40;3.22;;;;;;;;;;6100768;19;20109;-74
2023/01/01 08:29:28;;;;;;;11.07;2.47;;;;;;;;;;6105419;19;20431;-74
2023/01/01 08:31:36;;;;;;;12.00;2.53;;;;;;;;;;6104616;19;20774;-76
2023/01/01 08:33:47;;;;;;;9.88;1.92;;;;;;;;;;6101456;19;20014;-77
2023/01/01 08:35:52;;;;;;;9.43;3.00;;;;;;;;;;6103346;19;20022;-77
2023/01/01 08:37:58;;;;;;;6.00;1.92;;;;;;;;;;6081246;19;20018;-76
2023/01/01 08:40:03;;;;;;;9.40;2.45;;;;;;;;;;6102973;19;20056;-76
2023/01/01 08:42:08;;;;;;;7.68;2.42;;;;;;;;;;6100841;19;20314;-76
2023/01/01 08:44:16;;;;;;;12.00;2.53;;;;;;;;;;6099647;19;20011;-77
2023/01/01 08:46:20;;;;;;;11.63;2.25;;;;;;;;;;6105472;19;20003;-77
2023/01/01 08:48:25;;;;;;;9.43;2.15;;;;;;;;;;6102237;19;20030;-76
2023/01/01 08:50:37;;;;;;;9.07;2.15;;;;;;;;;;6103449;19;20018;-77
2023/01/01 08:52:42;;;;;;;12.60;2.60;;;;;;;;;;6096618;19;20466;-77
2023/01/01 08:54:47;;;;;;;8.73;1.95;;;;;;;;;;6102205;19;20038;-76
2023/01/01 08:56:52;;;;;;;8.65;2.10;;;;;;;;;;6100545;19;20018;-76
2023/01/01 08:58:56;;;;;;;9.05;2.47;;;;;;;;;;6100394;19;20078;-74
2023/01/01 09:01:09;;;;;;;9.60;2.78;;;;;;;;;;6101740;19;20019;-76
2023/01/01 09:03:14;;;;;;;8.05;1.73;;;;;;;;;;6100950;19;20014;-77
2023/01/01 09:05:19;;;;;;;8.32;2.10;;;;;;;;;;6103710;19;20003;-77
2023/01/01 09:07:26;;;;;;;7.65;2.70;;;;;;;;;;6097762;19;20728;-74
2023/01/01 09:09:31;;;;;;;7.45;3.33;;;;;;;;;;6102086;19;20010;-73
2023/01/01 09:11:36;;;;;;;15.15;3.05;;;;;;;;;;6101257;19;20516;-73
2023/01/01 09:13:41;;;;;;;11.70;2.50;;;;;;;;;;6104032;19;20024;-74
2023/01/01 09:15:46;;;;;;;7.07;1.98;;;;;;;;;;6106355;19;20045;-76
2023/01/01 09:17:51;;;;;;;12.63;3.15;;;;;;;;;;6104156;19;20006;-74
2023/01/01 09:19:56;;;;;;;12.35;2.45;;;;;;;;;;6100720;19;20390;-75
2023/01/01 09:22:00;;;;;;;8.52;2.30;;;;;;;;;;6101709;19;20019;-74
2023/01/01 09:24:09;;;;;;;10.05;2.08;;;;;;;;;;6100631;19;20011;-77
2023/01/01 09:26:14;;;;;;;14.05;2.53;;;;;;;;;;6099534;19;20010;-76
2023/01/01 09:28:22;;;;;;;12.85;2.63;;;;;;;;;;6099857;19;20085;-75
2023/01/01 09:30:29;;;;;;;14.90;2.85;;;;;;;;;;6098947;19;20740;-74
2023/01/01 09:32:34;;;;;;;15.02;2.97;;;;;;;;;;6095209;19;20587;-76
2023/01/01 09:34:40;;;;;;;12.73;2.78;;;;;;;;;;6102348;19;20006;-77
2023/01/01 09:36:48;;;;;;;10.45;2.38;;;;;;;;;;6100913;19;20003;-76
2023/01/01 09:38:54;;;;;;;6.63;1.85;;;;;;;;;;6099590;19;20070;-75
2023/01/01 09:41:14;;;;;;;11.48;2.55;;;;;;;;;;6097928;19;20007;-76
2023/01/01 09:43:26;;;;;;;10.32;2.85;;;;;;;;;;6101374;19;20023;-76
2023/01/01 09:45:33;;;;;;;11.50;2.60;;;;;;;;;;6102684;19;20015;-77
2023/01/01 09:47:41;;;;;;;9.70;3.35;;;;;;;;;;6098918;19;20313;-76
2023/01/01 09:49:48;;;;;;;6.88;2.28;;;;;;;;;;6101236;19;20009;-77
2023/01/01 09:52:04;;;;;;;10.73;2.53;;;;;;;;;;6108177;19;20030;-74
2023/01/01 09:54:16;;;;;;;11.82;2.40;;;;;;;;;;6104554;19;20007;-74
2023/01/01 09:56:27;;;;;;;10.10;2.55;;;;;;;;;;6107497;19;20071;-75
2023/01/01 09:58:35;;;;;;;12.63;2.42;;;;;;;;;;6104860;19;20014;-74
2023/01/01 10:00:43;;;;;;;8.80;2.35;;;;;;;;;;6103944;19;20010;-75
2023/01/01 10:03:05;;;;;;;9.93;2.47;;;;;;;;;;6105884;19;20035;-74
2023/01/01 10:05:17;;;;;;;8.77;2.22;;;;;;;;;;6102398;19;20010;-73
2023/01/01 10:07:27;;;;;;;11.15;2.15;;;;;;;;;;6105487;19;20018;-76
2023/01/01 10:09:40;;;;;;;11.48;2.42;;;;;;;;;;6106588;19;20022;-75
2023/01/01 10:11:56;;;;;;;11.60;2.35;;;;;;;;;;6104381;19;20007;-73
2023/01/01 10:14:02;;;;;;;7.80;2.55;;;;;;;;;;6104531;19;20481;-73
2023/01/01 10:16:12;;;;;;;13.05;2.55;;;;;;;;;;6107191;19;20010;-74
2023/01/01 10:18:28;;;;;;;14.65;3.67;;;;;;;;;;6108270;19;20445;-73
2023/01/01 10:20:38;;;;;;;6.63;2.22;;;;;;;;;;6105649;19;20070;-73
2023/01/01 10:22:45;;;;;;;10.38;2.05;;;;;;;;;;6105834;19;20013;-75
2023/01/01 10:24:56;;;;;;;10.60;2.95;;;;;;;;;;6107905;19;20110;-75
2023/01/01 10:27:04;;;;;;;12.38;2.42;;;;;;;;;;6103941;19;20302;-76
2023/01/01 10:29:16;;;;;;;11.93;3.38;;;;;;;;;;6109627;19;20934;-74
2023/01/01 10:31:23;;;;;;;14.45;3.10;;;;;;;;;;6109032;19;20014;-73
2023/01/01 10:33:27;;;;;;;13.50;3.00;;;;;;;;;;6106279;19;20006;-74
2023/01/01 10:35:36;;;;;;;13.00;2.60;;;;;;;;;;6108039;19;20437;-73
2023/01/01 10:37:42;;;;;;;12.18;2.20;;;;;;;;;;6107672;19;20026;-74
2023/01/01 10:39:47;;;;;;;11.73;2.50;;;;;;;;;;6109171;19;20479;-74
2023/01/01 10:41:52;;;;;;;10.88;2.90;;;;;;;;;;6109371;19;20015;-74
2023/01/01 10:44:00;;;;;;;14.40;3.00;;;;;;;;;;6108215;19;20097;-73
2023/01/01 10:46:05;;;;;;;9.93;2.72;;;;;;;;;;6109075;19;20011;-73
2023/01/01 10:48:16;;;;;;;11.18;2.58;;;;;;;;;;6107719;19;20497;-74
2023/01/01 10:50:21;;;;;;;14.63;3.28;;;;;;;;;;6104361;19;20358;-74
2023/01/01 10:52:31;;;;;;;13.45;2.70;;;;;;;;;;6097063;19;20007;-73
2023/01/01 10:54:39;;;;;;;8.25;2.55;;;;;;;;;;6105041;19;20017;-73
2023/01/01 10:56:45;;;;;;;10.82;2.90;;;;;;;;;;6105934;19;20019;-73
2023/01/01 10:58:53;;;;;;;10.18;2.88;;;;;;;;;;6104412;19;20010;-73
2023/01/01 11:01:05;;;;;;;12.27;3.13;;;;;;;;;;6101212;19;20015;-73
2023/01/01 11:03:18;;;;;;;15.05;3.00;;;;;;;;;;6102894;19;20014;-73
2023/01/01 11:05:23;;;;;;;13.05;2.95;;;;;;;;;;6102951;19;20471;-74
2023/01/01 11:07:31;;;;;;;13.02;2.60;;;;;;;;;;6103624;19;20093;-74
2023/01/01 11:09:37;;;;;;;8.68;2.88;;;;;;;;;;6101507;19;20050;-73
2023/01/01 11:11:45;;;;;;;7.85;2.33;;;;;;;;;;6104042;19;20042;-73
2023/01/01 11:13:52;;;;;;;8.95;2.50;;;;;;;;;;6102039;19;20459;-74
2023/01/01 11:16:03;;;;;;;10.43;2.83;;;;;;;;;;6102721;19;20113;-76
2023/01/01 11:18:09;;;;;;;14.65;2.83;;;;;;;;;;6101321;19;20077;-75
2023/01/01 11:20:19;;;;;;;13.95;2.55;;;;;;;;;;6102953;19;20007;-73
2023/01/01 11:22:38;;;;;;;10.07;2.20;;;;;;;;;;6100349;19;20010;-76
2023/01/01 11:25:01;;;;;;;11.60;2.65;;;;;;;;;;6102525;19;20320;-76
2023/01/01 11:27:20;;;;;;;16.63;3.70;;;;;;;;;;6096050;19;20014;-75
2023/01/01 11:29:29;;;;;;;10.70;2.63;;;;;;;;;;6105759;19;20609;-76
2023/01/01 11:31:40;;;;;;;11.63;2.80;;;;;;;;;;6102101;19;20029;-76
2023/01/01 11:33:48;;;;;;;10.85;2.70;;;;;;;;;;6097870;19;21522;-75
2023/01/01 11:35:56;;;;;;;13.10;3.20;;;;;;;;;;6104205;19;20023;-77
2023/01/01 11:38:01;;;;;;;12.20;3.30;;;;;;;;;;6106054;19;20019;-73
2023/01/01 11:40:16;;;;;;;11.57;3.60;;;;;;;;;;6105345;19;20014;-75
2023/01/01 11:42:24;;;;;;;8.15;2.65;;;;;;;;;;6105948;19;20098;-77
2023/01/01 11:44:36;;;;;;;8.75;2.58;;;;;;;;;;6104289;19;20030;-76
2023/01/01 11:46:47;;;;;;;10.52;3.25;;;;;;;;;;6106832;19;20034;-73
2023/01/01 11:48:53;;;;;;;10.00;3.28;;;;;;;;;;6105571;19;20023;-73
2023/01/01 11:50:59;;;;;;;9.57;2.50;;;;;;;;;;6101165;19;20534;-75
2023/01/01 11:53:20;;;;;;;9.73;2.95;;;;;;;;;;6101940;19;20034;-73
2023/01/01 11:55:31;;;;;;;16.48;3.42;;;;;;;;;;6101097;19;20011;-76
2023/01/01 11:57:39;;;;;;;14.70;2.95;;;;;;;;;;6103968;19;20354;-76
2023/01/01 11:59:51;;;;;;;11.57;3.40;;;;;;;;;;6106520;19;20017;-76
2023/01/01 12:02:00;;;;;;;10.95;2.78;;;;;;;;;;6104885;19;20015;-75
2023/01/01 12:04:09;;;;;;;11.05;3.08;;;;;;;;;;6105192;19;20730;-76
2023/01/01 12:06:20;;;;;;;15.82;3.45;;;;;;;;;;6104813;19;20566;-75
2023/01/01 12:08:31;;;;;;;9.90;3.40;;;;;;;;;;6106456;19;21096;-76
2023/01/01 12:10:42;;;;;;;8.23;3.05;;;;;;;;;;6105171;19;20034;-75
2023/01/01 12:12:52;;;;;;;9.73;2.90;;;;;;;;;;6104355;19;20044;-72
2023/01/01 12:15:02;;;;;;;11.63;3.28;;;;;;;;;;6101295;19;20010;-72
2023/01/01 12:17:19;;;;;;;11.48;3.45;;;;;;;;;;6102909;19;20530;-73
2023/01/01 12:19:26;;;;;;;14.23;3.28;;;;;;;;;;6103674;19;20014;-75
2023/01/01 12:21:31;;;;;;;13.52;3.17;;;;;;;;;;6106147;19;20041;-75
2023/01/01 12:23:36;;;;;;;15.73;3.33;;;;;;;;;;6105590;19;20022;-76
2023/01/01 12:25:48;;;;;;;11.15;2.80;;;;;;;;;;6104709;19;20014;-76
2023/01/01 12:28:03;;;;;;;12.55;3.33;;;;;;;;;;6104811;19;20473;-75
2023/01/01 12:30:17;;;;;;;12.48;2.92;;;;;;;;;;6105064;19;20025;-76
2023/01/01 12:32:31;;;;;;;14.63;3.22;;;;;;;;;;6105223;19;20018;-76
2023/01/01 12:34:39;;;;;;;8.80;2.63;;;;;;;;;;6104771;19;20324;-76
2023/01/01 12:36:49;;;;;;;13.35;3.38;;;;;;;;;;6105904;19;20007;-75
2023/01/01 12:39:35;;;;;;;12.52;3.03;;;;;;;;;;6099198;19;20368;-75
2023/01/01 12:41:47;;;;;;;13.10;3.20;;;;;;;;;;6095092;19;20013;-75
2023/01/01 12:43:59;;;;;;;12.98;4.82;;;;;;;;;;6105436;19;20018;-77